Time;durP1;ratioP1;P1;durP2;ratioP2;P2;SDS_P1;SDS_P2;PMS_P1;PMS_P2;Temp;Humidity;BMP_temperature;BMP_pressure;BME280_temperature;BME280_humidity;BME280_pressure;Samples;Min_cycle;Max_cycle;Signal;HPM_P1;HPM_P2
2023/01/25 00:01:10;;;;;;;35.70;22.10;;;;;;;1.63;86.61;102634.36;82591;1256;3026213;-72
2023/01/25 00:03:46;;;;;;;31.60;20.90;;;;;;;1.62;86.21;102635.52;82571;1254;3025158;-72
2023/01/25 00:06:19;;;;;;;33.90;21.40;;;;;;;1.58;86.08;102635.35;83362;1256;3011988;-73
2023/01/25 00:08:52;;;;;;;34.40;20.80;;;;;;;1.52;85.76;102636.38;83917;1259;3011804;-72
2023/01/25 00:11:25;;;;;;;34.60;21.60;;;;;;;1.49;85.82;102636.10;82598;1256;3025581;-73
2023/01/25 00:13:56;;;;;;;34.40;22.30;;;;;;;1.48;85.74;102640.36;83895;1259;3011144;-73
2023/01/25 00:16:28;;;;;;;37.30;23.10;;;;;;;1.46;85.69;102635.48;82588;1262;3025784;-73
2023/01/25 00:19:00;;;;;;;32.40;21.60;;;;;;;1.44;85.69;102639.52;83909;1259;3011276;-73
2023/01/25 00:21:32;;;;;;;32.00;20.80;;;;;;;1.41;85.59;102640.79;82625;1257;3025794;-72
2023/01/25 00:24:04;;;;;;;29.60;19.00;;;;;;;1.40;85.51;102637.67;83913;1259;3011399;-70
2023/01/25 00:26:36;;;;;;;27.80;18.40;;;;;;;1.37;85.13;102632.91;82575;1256;3026622;-72
2023/01/25 00:29:07;;;;;;;27.40;19.70;;;;;;;1.35;85.05;102623.18;83743;1256;3011473;-72
2023/01/25 00:31:49;;;;;;;31.30;19.90;;;;;;;1.36;85.39;102622.19;82451;1256;3026088;-72
2023/01/25 00:34:46;;;;;;;33.10;21.50;;;;;;;1.35;85.42;102619.08;82443;1255;3026294;-72
2023/01/25 00:37:28;;;;;;;28.50;19.30;;;;;;;1.31;84.95;102619.46;82575;1255;3024991;-71
2023/01/25 00:40:01;;;;;;;27.10;17.50;;;;;;;1.29;84.97;102616.27;82603;1259;3026008;-72
2023/01/25 00:42:32;;;;;;;29.90;19.30;;;;;;;1.29;85.18;102613.88;83895;1256;3011508;-72
2023/01/25 00:45:08;;;;;;;29.40;20.30;;;;;;;1.29;84.87;102616.61;82602;1259;3026521;-72
2023/01/25 00:47:44;;;;;;;30.50;20.80;;;;;;;1.26;84.84;102615.98;83354;1259;3011446;-71
2023/01/25 00:50:18;;;;;;;30.10;19.90;;;;;;;1.23;84.84;102609.52;83326;1259;3011423;-73
2023/01/25 00:52:49;;;;;;;28.50;19.00;;;;;;;1.19;84.96;102603.39;83903;1256;3011433;-73
2023/01/25 00:55:22;;;;;;;25.50;16.70;;;;;;;1.19;84.88;102599.77;82621;1269;3025702;-72
2023/01/25 00:57:57;;;;;;;28.30;17.70;;;;;;;1.19;84.64;102599.61;83311;1256;3011941;-72
2023/01/25 01:00:28;;;;;;;29.50;20.20;;;;;;;1.17;84.37;102598.16;83864;1256;3011527;-72
2023/01/25 01:03:02;;;;;;;29.20;19.50;;;;;;;1.14;84.26;102604.23;82599;1255;3025816;-72
2023/01/25 01:05:36;;;;;;;28.30;19.10;;;;;;;1.15;84.54;102599.44;83923;1259;3011865;-71
2023/01/25 01:08:12;;;;;;;25.60;17.00;;;;;;;1.14;84.37;102595.96;82583;1256;3026132;-71
2023/01/25 01:10:42;;;;;;;21.50;14.40;;;;;;;1.12;84.13;102598.97;83862;1259;3011578;-72
2023/01/25 01:13:15;;;;;;;22.10;15.70;;;;;;;1.09;83.90;102597.67;82572;1259;3026081;-72
2023/01/25 01:15:46;;;;;;;18.50;13.80;;;;;;;1.07;83.77;102594.31;83923;1256;3011531;-71
2023/01/25 01:18:20;;;;;;;18.80;13.70;;;;;;;1.07;83.63;102591.56;82567;1259;3024420;-72
2023/01/25 01:20:52;;;;;;;20.40;15.20;;;;;;;1.02;83.38;102586.93;83849;1257;3011602;-73
2023/01/25 01:23:24;;;;;;;21.00;14.90;;;;;;;0.97;83.29;102587.61;82588;1256;3025162;-73
2023/01/25 01:25:58;;;;;;;19.40;14.40;;;;;;;0.90;82.94;102590.44;83907;1256;3011538;-72
2023/01/25 01:28:33;;;;;;;19.20;13.50;;;;;;;0.86;83.13;102595.96;82540;1254;3025281;-72
2023/01/25 01:31:10;;;;;;;15.50;12.50;;;;;;;0.85;83.07;102600.56;82572;1259;3025732;-72
2023/01/25 01:33:43;;;;;;;18.40;13.70;;;;;;;0.83;82.80;102600.33;83251;1256;3011546;-73
2023/01/25 01:36:18;;;;;;;20.50;14.80;;;;;;;0.83;82.84;102597.24;83915;1255;3011585;-72
2023/01/25 01:38:50;;;;;;;19.40;14.80;;;;;;;0.83;82.84;102592.91;82552;1259;3025857;-70
2023/01/25 01:41:21;;;;;;;21.50;14.90;;;;;;;0.81;82.85;102590.45;83868;1269;3011495;-73
2023/01/25 01:43:54;;;;;;;19.00;14.00;;;;;;;0.77;82.79;102583.77;82481;1256;3025242;-72
2023/01/25 01:46:28;;;;;;;16.50;13.30;;;;;;;0.74;82.66;102579.36;83893;1254;3011419;-72
2023/01/25 01:49:02;;;;;;;18.90;13.50;;;;;;;0.71;82.43;102583.88;82571;1259;3025619;-72
2023/01/25 01:51:42;;;;;;;17.70;13.20;;;;;;;0.71;82.72;102582.35;83912;1266;3011442;-73
2023/01/25 01:54:15;;;;;;;18.40;13.30;;;;;;;0.70;82.65;102586.77;82541;1256;3026227;-73
2023/01/25 01:56:50;;;;;;;17.80;13.80;;;;;;;0.68;82.68;102586.88;83894;1270;3011477;-71
2023/01/25 01:59:22;;;;;;;18.80;13.00;;;;;;;0.66;82.54;102583.86;82597;1263;3024816;-72
2023/01/25 02:01:53;;;;;;;16.70;12.10;;;;;;;0.61;82.38;102585.55;83895;1269;3012953;-73
2023/01/25 02:04:26;;;;;;;14.70;11.00;;;;;;;0.58;82.36;102582.54;82568;1259;3026505;-72
2023/01/25 02:07:01;;;;;;;15.80;12.50;;;;;;;0.57;82.59;102585.23;83889;1257;3011601;-72
2023/01/25 02:09:37;;;;;;;16.80;12.30;;;;;;;0.57;82.49;102575.79;82426;1260;3026257;-72
2023/01/25 02:12:09;;;;;;;17.80;12.80;;;;;;;0.58;82.70;102574.10;82468;1256;3024927;-73
2023/01/25 02:14:41;;;;;;;16.80;13.00;;;;;;;0.58;82.51;102568.95;83898;1256;3011584;-73
2023/01/25 02:17:14;;;;;;;16.90;12.60;;;;;;;0.56;82.57;102566.84;82563;1259;3026795;-72
2023/01/25 02:19:52;;;;;;;17.50;12.50;;;;;;;0.54;82.50;102565.88;83889;1259;3011301;-72
2023/01/25 02:22:30;;;;;;;17.00;10.80;;;;;;;0.54;82.64;102563.83;82583;1254;3026617;-72
2023/01/25 02:25:10;;;;;;;13.50;11.00;;;;;;;0.55;82.40;102563.69;82562;1259;3027282;-74
2023/01/25 02:27:48;;;;;;;15.00;11.50;;;;;;;0.52;82.21;102560.33;82557;1259;3025814;-72
2023/01/25 02:30:21;;;;;;;16.10;12.40;;;;;;;0.50;82.38;102560.25;82594;1267;3027506;-72
2023/01/25 02:32:54;;;;;;;16.80;12.50;;;;;;;0.48;82.53;102559.83;83884;1259;3011377;-71
2023/01/25 02:35:37;;;;;;;17.90;13.60;;;;;;;0.47;82.32;102559.27;82611;1257;3025687;-72
2023/01/25 02:38:11;;;;;;;15.40;11.30;;;;;;;0.43;82.19;102558.42;82560;1257;3026298;-73
2023/01/25 02:40:46;;;;;;;15.80;10.90;;;;;;;0.41;82.15;102555.44;83894;1260;3011440;-70
2023/01/25 02:43:19;;;;;;;14.80;11.60;;;;;;;0.43;82.18;102550.69;82576;1267;3025650;-71
2023/01/25 02:45:54;;;;;;;16.90;12.00;;;;;;;0.43;82.37;102550.54;83925;1259;3012673;-72
2023/01/25 02:48:27;;;;;;;13.70;11.00;;;;;;;0.44;82.20;102549.05;82584;1277;3025807;-72
2023/01/25 02:50:58;;;;;;;16.50;12.30;;;;;;;0.43;82.15;102543.67;83902;1257;3012944;-73
2023/01/25 02:53:30;;;;;;;17.70;13.00;;;;;;;0.40;82.01;102541.16;82569;1255;3026224;-72
2023/01/25 02:56:01;;;;;;;16.10;11.80;;;;;;;0.40;82.18;102545.42;83882;1259;3013179;-73
2023/01/25 02:58:33;;;;;;;13.60;10.50;;;;;;;0.39;82.11;102545.75;82565;1259;3025518;-72
2023/01/25 03:01:04;;;;;;;14.50;11.40;;;;;;;0.41;82.37;102537.58;83788;1259;3011650;-72
2023/01/25 03:03:36;;;;;;;14.00;11.00;;;;;;;0.44;82.44;102531.17;82572;1256;3026170;-72
2023/01/25 03:06:08;;;;;;;16.90;11.30;;;;;;;0.46;82.28;102529.86;83920;1277;3011450;-72
2023/01/25 03:08:40;;;;;;;17.30;12.70;;;;;;;0.45;81.92;102526.92;82562;1256;3026244;-72
2023/01/25 03:11:11;;;;;;;16.60;13.20;;;;;;;0.42;81.86;102520.77;83905;1267;3013357;-73
2023/01/25 03:13:43;;;;;;;17.20;12.10;;;;;;;0.38;81.76;102516.02;82560;1259;3026102;-71
2023/01/25 03:16:15;;;;;;;15.80;11.40;;;;;;;0.36;81.92;102512.30;83906;1262;3011689;-73
2023/01/25 03:18:47;;;;;;;17.50;12.80;;;;;;;0.34;81.97;102508.14;82512;1259;3025918;-72
2023/01/25 03:21:19;;;;;;;15.60;12.20;;;;;;;0.34;82.00;102513.95;83873;1259;3011304;-74
2023/01/25 03:23:58;;;;;;;17.30;12.70;;;;;;;0.33;82.04;102511.16;82560;1259;3026248;-73
2023/01/25 03:27:09;;;;;;;15.20;12.80;;;;;;;0.32;81.86;102502.57;82564;1259;3026365;-72
2023/01/25 03:29:23;;;;;;;17.40;13.50;;;;;;;0.27;81.71;102503.23;82569;1257;3026297;-71
2023/01/25 03:31:54;;;;;;;17.70;12.50;;;;;;;0.24;81.76;102502.09;83960;1259;3011630;-72
2023/01/25 03:34:29;;;;;;;15.60;11.80;;;;;;;0.22;81.78;102501.66;82591;1259;3025902;-71
2023/01/25 03:37:02;;;;;;;17.50;12.20;;;;;;;0.21;81.80;102499.56;83345;1255;3012951;-70
2023/01/25 03:39:35;;;;;;;16.10;12.10;;;;;;;0.23;81.86;102501.70;83860;1267;3012943;-71
2023/01/25 03:42:08;;;;;;;16.50;12.20;;;;;;;0.23;81.78;102500.31;82576;1254;3026158;-71
2023/01/25 03:44:39;;;;;;;16.20;12.30;;;;;;;0.23;81.70;102500.15;83900;1256;3011626;-72
2023/01/25 03:47:11;;;;;;;16.60;12.50;;;;;;;0.21;81.68;102493.54;82585;1259;3025329;-72
2023/01/25 03:49:42;;;;;;;18.40;13.10;;;;;;;0.18;81.74;102483.83;83928;1254;3011505;-72
2023/01/25 03:52:15;;;;;;;17.80;12.50;;;;;;;0.17;81.92;102476.25;82557;1256;3025770;-72
2023/01/25 03:54:48;;;;;;;15.80;12.10;;;;;;;0.18;81.87;102492.76;83858;1259;3011196;-72
2023/01/25 03:57:24;;;;;;;16.00;12.60;;;;;;;0.14;81.56;102495.19;82565;1263;3028150;-72
2023/01/25 03:59:55;;;;;;;17.80;13.60;;;;;;;0.11;81.32;102480.64;83901;1259;3011628;-73
2023/01/25 04:02:27;;;;;;;18.60;13.60;;;;;;;0.08;81.41;102476.59;82548;1259;3026758;-72
2023/01/25 04:05:03;;;;;;;22.00;15.60;;;;;;;0.08;81.61;102478.80;83907;1254;3012897;-73
2023/01/25 04:07:37;;;;;;;22.50;15.10;;;;;;;0.06;81.82;102475.98;82539;1260;3026310;-72
2023/01/25 04:10:11;;;;;;;21.70;15.70;;;;;;;0.03;81.66;102479.30;83845;1254;3011843;-72
2023/01/25 04:12:48;;;;;;;22.60;16.50;;;;;;;-0.01;81.35;102476.91;82554;1268;3025939;-72
2023/01/25 04:15:23;;;;;;;25.30;18.60;;;;;;;-0.03;81.56;102472.88;82568;1259;3025600;-73
2023/01/25 04:17:57;;;;;;;28.30;19.40;;;;;;;-0.04;81.63;102477.15;82578;1259;3025765;-73
2023/01/25 04:20:29;;;;;;;30.60;20.80;;;;;;;-0.06;81.71;102478.45;83859;1260;3011424;-69
2023/01/25 04:23:01;;;;;;;24.80;18.30;;;;;;;-0.09;81.66;102483.64;82570;1260;3025953;-70
2023/01/25 04:25:32;;;;;;;23.90;16.40;;;;;;;-0.11;81.65;102482.88;83897;1254;3011591;-71
2023/01/25 04:28:04;;;;;;;26.00;18.40;;;;;;;-0.13;81.56;102475.61;82414;1262;3025846;-71
2023/01/25 04:30:38;;;;;;;22.40;16.80;;;;;;;-0.12;81.86;102465.86;83886;1271;3011424;-73
2023/01/25 04:33:13;;;;;;;27.70;19.90;;;;;;;-0.10;81.88;102471.94;82552;1260;3025776;-72
2023/01/25 04:35:48;;;;;;;27.20;19.20;;;;;;;-0.09;81.97;102470.08;82575;1269;3025588;-73
2023/01/25 04:38:22;;;;;;;29.80;20.10;;;;;;;-0.10;81.75;102464.73;83329;1265;3011418;-72
2023/01/25 04:40:53;;;;;;;27.20;20.30;;;;;;;-0.12;81.60;102466.03;83776;1259;3011601;-73
2023/01/25 04:43:25;;;;;;;28.20;19.30;;;;;;;-0.18;81.63;102458.05;82561;1260;3026408;-72
2023/01/25 04:45:56;;;;;;;26.70;18.90;;;;;;;-0.19;81.73;102465.40;83789;1265;3011232;-72
2023/01/25 04:48:31;;;;;;;25.30;20.10;;;;;;;-0.20;81.68;102460.05;82566;1260;3026127;-71
2023/01/25 04:51:01;;;;;;;28.70;19.60;;;;;;;-0.19;81.66;102454.23;83914;1268;3011790;-72
2023/01/25 04:53:34;;;;;;;28.30;19.70;;;;;;;-0.23;81.53;102462.81;82573;1259;3025040;-72
2023/01/25 04:56:06;;;;;;;29.50;21.00;;;;;;;-0.27;81.61;102464.75;83869;1268;3011495;-73
2023/01/25 04:58:41;;;;;;;30.00;21.00;;;;;;;-0.31;81.62;102466.63;82565;1269;3025724;-74
2023/01/25 05:01:15;;;;;;;30.20;20.90;;;;;;;-0.33;81.66;102467.95;83323;1259;3012023;-72
2023/01/25 05:03:47;;;;;;;28.60;19.40;;;;;;;-0.35;81.55;102467.52;83879;1260;3011414;-73
2023/01/25 05:06:20;;;;;;;30.60;20.70;;;;;;;-0.37;81.51;102463.33;82591;1265;3024783;-71
2023/01/25 05:08:51;;;;;;;28.40;19.80;;;;;;;-0.35;81.60;102467.14;83866;1263;3011754;-71
2023/01/25 05:11:27;;;;;;;28.90;20.40;;;;;;;-0.36;81.64;102469.19;82578;1260;3025645;-70
2023/01/25 05:14:02;;;;;;;31.50;21.30;;;;;;;-0.36;81.80;102468.33;82464;1262;3026465;-71
2023/01/25 05:16:33;;;;;;;33.50;22.10;;;;;;;-0.37;81.88;102467.94;83881;1256;3013272;-70
2023/01/25 05:19:09;;;;;;;35.00;22.60;;;;;;;-0.45;81.42;102465.73;82552;1255;3025698;-71
2023/01/25 05:22:02;;;;;;;33.70;21.70;;;;;;;-0.50;81.39;102464.81;82557;1260;3026016;-69
2023/01/25 05:24:40;;;;;;;36.70;23.30;;;;;;;-0.52;81.79;102460.83;82557;1260;3026622;-72
2023/01/25 05:27:14;;;;;;;37.70;24.20;;;;;;;-0.51;81.69;102457.08;82542;1268;3025724;-70
2023/01/25 05:29:46;;;;;;;40.30;25.40;;;;;;;-0.54;81.42;102456.45;83893;1259;3011435;-70
2023/01/25 05:32:22;;;;;;;41.70;27.90;;;;;;;-0.59;81.50;102458.29;82553;1268;3026086;-71
2023/01/25 05:34:53;;;;;;;43.20;26.60;;;;;;;-0.63;81.69;102457.64;83782;1270;3011412;-72
2023/01/25 05:37:26;;;;;;;41.50;26.00;;;;;;;-0.66;81.52;102456.65;82528;1267;3026310;-70
2023/01/25 05:39:58;;;;;;;39.90;25.30;;;;;;;-0.69;81.50;102458.23;83853;1260;3011498;-72
2023/01/25 05:42:30;;;;;;;43.10;25.80;;;;;;;-0.73;81.42;102452.23;82551;1259;3025366;-73
2023/01/25 05:45:01;;;;;;;45.50;27.40;;;;;;;-0.74;81.56;102456.66;83876;1260;3011484;-72
2023/01/25 05:47:33;;;;;;;45.90;27.80;;;;;;;-0.74;81.71;102448.60;82561;1269;3026201;-71
2023/01/25 05:50:05;;;;;;;44.80;28.50;;;;;;;-0.74;81.63;102451.15;83791;1260;3014098;-69
2023/01/25 05:52:37;;;;;;;47.80;28.90;;;;;;;-0.78;81.57;102444.13;82550;1269;3026115;-70
2023/01/25 05:55:13;;;;;;;45.10;27.20;;;;;;;-0.83;81.58;102441.55;83911;1268;3011188;-71
2023/01/25 05:57:45;;;;;;;42.90;26.00;;;;;;;-0.87;81.61;102434.17;82608;1265;3024902;-71
2023/01/25 06:00:20;;;;;;;47.50;28.10;;;;;;;-0.89;81.44;102430.84;83932;1260;3011336;-71
2023/01/25 06:02:55;;;;;;;43.70;26.80;;;;;;;-0.90;81.63;102429.41;82559;1265;3025970;-71
2023/01/25 06:05:30;;;;;;;46.90;29.20;;;;;;;-0.90;81.86;102429.75;83318;1255;3011576;-72
2023/01/25 06:08:04;;;;;;;45.80;29.20;;;;;;;-0.89;82.12;102430.16;82537;1259;3026848;-72
2023/01/25 06:10:35;;;;;;;47.40;29.70;;;;;;;-0.90;81.82;102425.14;83901;1258;3012917;-72
2023/01/25 06:13:08;;;;;;;45.90;28.80;;;;;;;-0.91;81.99;102422.54;82566;1268;3025376;-71
2023/01/25 06:15:39;;;;;;;45.00;27.10;;;;;;;-0.87;82.21;102422.00;83866;1265;3011408;-72
2023/01/25 06:18:11;;;;;;;42.90;27.90;;;;;;;-0.84;82.25;102430.21;82425;1270;3026038;-72
2023/01/25 06:20:45;;;;;;;44.80;27.60;;;;;;;-0.81;82.34;102429.80;83905;1268;3013283;-71
2023/01/25 06:23:17;;;;;;;45.30;29.30;;;;;;;-0.79;81.99;102431.77;82561;1260;3025224;-70
2023/01/25 06:25:57;;;;;;;47.90;29.80;;;;;;;-0.79;82.10;102427.51;83917;1265;3011586;-69
2023/01/25 06:28:31;;;;;;;48.00;29.00;;;;;;;-0.76;82.29;102427.27;82514;1254;3026329;-70
2023/01/25 06:31:10;;;;;;;42.70;26.80;;;;;;;-0.79;81.95;102427.84;82565;1256;3025469;-72
2023/01/25 06:33:48;;;;;;;43.50;25.50;;;;;;;-0.81;82.09;102423.30;82547;1259;3025902;-71
2023/01/25 06:36:22;;;;;;;41.20;23.80;;;;;;;-0.80;82.15;102427.46;82450;1260;3025726;-71
2023/01/25 06:38:53;;;;;;;37.70;25.20;;;;;;;-0.75;82.00;102426.27;83874;1268;3011585;-72
2023/01/25 06:41:25;;;;;;;46.80;27.00;;;;;;;-0.69;82.35;102420.50;82570;1268;3027622;-70
2023/01/25 06:43:56;;;;;;;44.50;27.10;;;;;;;-0.66;82.13;102412.91;83855;1261;3012954;-69
2023/01/25 06:46:30;;;;;;;42.90;27.90;;;;;;;-0.67;82.03;102420.58;82578;1260;3025812;-71
2023/01/25 06:49:04;;;;;;;41.90;26.50;;;;;;;-0.70;81.81;102423.23;83882;1269;3011426;-71
2023/01/25 06:51:36;;;;;;;39.50;24.40;;;;;;;-0.75;81.71;102419.95;82578;1254;3026359;-71
2023/01/25 06:54:07;;;;;;;39.10;23.80;;;;;;;-0.77;81.57;102416.43;83871;1263;3013480;-72
2023/01/25 06:56:40;;;;;;;32.40;22.40;;;;;;;-0.76;81.78;102414.41;82571;1260;3027964;-69
2023/01/25 06:59:11;;;;;;;36.80;23.00;;;;;;;-0.73;81.91;102412.28;83856;1259;3011409;-72
2023/01/25 07:01:44;;;;;;;39.80;23.80;;;;;;;-0.68;82.16;102411.14;82558;1277;3026155;-71
2023/01/25 07:04:15;;;;;;;41.20;25.60;;;;;;;-0.64;82.35;102409.95;83892;1259;3011849;-73
2023/01/25 07:06:47;;;;;;;41.70;26.20;;;;;;;-0.59;82.46;102401.41;82584;1255;3025279;-70
2023/01/25 07:09:22;;;;;;;39.50;26.10;;;;;;;-0.54;82.40;102391.98;83862;1261;3013601;-71
2023/01/25 07:11:55;;;;;;;38.20;24.90;;;;;;;-0.56;82.05;102390.55;82559;1260;3025580;-70
2023/01/25 07:14:28;;;;;;;39.20;24.50;;;;;;;-0.55;82.00;102393.48;83870;1268;3011270;-71
2023/01/25 07:17:03;;;;;;;38.60;24.50;;;;;;;-0.54;81.83;102390.29;82580;1260;3025850;-71
2023/01/25 07:19:41;;;;;;;40.30;24.30;;;;;;;-0.51;82.04;102392.95;83848;1268;3013083;-71
2023/01/25 07:22:19;;;;;;;41.00;25.60;;;;;;;-0.55;81.46;102398.48;82551;1265;3024614;-71
2023/01/25 07:24:52;;;;;;;43.50;26.10;;;;;;;-0.57;81.63;102393.91;82547;1267;3025294;-71
2023/01/25 07:27:34;;;;;;;48.70;29.00;;;;;;;-0.58;81.61;102394.73;83337;1268;3012727;-72
2023/01/25 07:30:11;;;;;;;46.90;27.80;;;;;;;-0.59;81.71;102390.05;82539;1254;3026367;-71
2023/01/25 07:32:46;;;;;;;39.80;24.10;;;;;;;-0.60;81.41;102392.95;82584;1260;3025854;-71
2023/01/25 07:35:19;;;;;;;41.10;24.40;;;;;;;-0.61;81.40;102394.42;83292;1254;3011543;-72
2023/01/25 07:37:50;;;;;;;41.60;26.70;;;;;;;-0.63;81.07;102387.36;83868;1259;3011568;-75
2023/01/25 07:40:24;;;;;;;43.80;26.50;;;;;;;-0.64;81.16;102388.50;82113;1255;3025187;-72
2023/01/25 07:42:55;;;;;;;41.00;25.40;;;;;;;-0.66;81.01;102384.52;83887;1261;3011512;-72
2023/01/25 07:45:35;;;;;;;46.50;29.00;;;;;;;-0.70;80.92;102380.37;82447;1258;3026167;-72
2023/01/25 07:48:11;;;;;;;44.80;27.50;;;;;;;-0.71;81.24;102377.06;82462;1257;3026033;-72
2023/01/25 07:50:48;;;;;;;51.60;28.00;;;;;;;-0.73;81.23;102372.71;83354;1261;3011591;-70
2023/01/25 07:53:24;;;;;;;44.20;25.40;;;;;;;-0.73;81.16;102378.52;82547;1260;3026368;-70
2023/01/25 07:56:04;;;;;;;42.90;26.20;;;;;;;-0.74;80.92;102378.81;82566;1270;3025981;-72
2023/01/25 07:58:37;;;;;;;41.10;26.90;;;;;;;-0.73;81.09;102381.61;82562;1263;3025794;-70
2023/01/25 08:01:14;;;;;;;45.50;28.00;;;;;;;-0.70;81.27;102378.83;83909;1270;3012834;-69
2023/01/25 08:03:55;;;;;;;48.50;28.90;;;;;;;-0.68;81.34;102374.63;82551;1270;3026259;-71
2023/01/25 08:06:34;;;;;;;47.90;29.50;;;;;;;-0.67;81.29;102372.10;82558;1254;3026129;-71
2023/01/25 08:09:10;;;;;;;47.00;27.70;;;;;;;-0.68;81.20;102370.36;82569;1260;3024582;-71
2023/01/25 08:11:45;;;;;;;42.10;25.30;;;;;;;-0.67;81.24;102367.48;82620;1267;3026380;-72
2023/01/25 08:14:16;;;;;;;44.20;27.70;;;;;;;-0.62;81.09;102372.11;83884;1270;3013507;-71
2023/01/25 08:16:52;;;;;;;46.60;28.80;;;;;;;-0.59;81.26;102371.54;82577;1270;3025703;-70
2023/01/25 08:19:29;;;;;;;49.50;29.80;;;;;;;-0.56;81.13;102370.83;82543;1268;3028047;-72
2023/01/25 08:22:04;;;;;;;46.90;29.50;;;;;;;-0.53;81.30;102371.98;82571;1261;3026363;-70
2023/01/25 08:24:40;;;;;;;44.30;28.90;;;;;;;-0.52;81.05;102369.44;82558;1270;3024624;-71
2023/01/25 08:27:20;;;;;;;44.90;26.50;;;;;;;-0.54;80.99;102368.18;83169;1260;3011743;-71
2023/01/25 08:29:58;;;;;;;38.50;24.50;;;;;;;-0.51;81.22;102363.64;82537;1260;3026106;-71
2023/01/25 08:32:35;;;;;;;41.90;26.70;;;;;;;-0.53;80.78;102355.70;82524;1261;3027488;-71
2023/01/25 08:35:14;;;;;;;41.10;26.20;;;;;;;-0.49;80.94;102357.86;82560;1271;3025524;-72
2023/01/25 08:37:51;;;;;;;43.50;27.20;;;;;;;-0.45;80.79;102351.86;82499;1261;3024942;-72
2023/01/25 08:40:24;;;;;;;44.20;27.10;;;;;;;-0.45;80.79;102348.46;82534;1261;3025310;-71
2023/01/25 08:42:55;;;;;;;44.00;28.00;;;;;;;-0.42;80.99;102346.17;83864;1255;3011428;-71
2023/01/25 08:45:33;;;;;;;42.50;26.30;;;;;;;-0.39;80.95;102342.17;82560;1260;3027706;-70
2023/01/25 08:48:07;;;;;;;36.50;23.60;;;;;;;-0.35;80.96;102337.88;82437;1260;3028398;-71
2023/01/25 08:50:47;;;;;;;40.40;24.30;;;;;;;-0.30;81.06;102340.81;83299;1259;3013107;-70
2023/01/25 08:53:22;;;;;;;41.60;27.30;;;;;;;-0.27;80.49;102342.29;82545;1267;3026473;-71
2023/01/25 08:55:54;;;;;;;44.80;27.70;;;;;;;-0.30;80.44;102339.95;83865;1267;3012919;-71
2023/01/25 08:58:30;;;;;;;44.30;27.60;;;;;;;-0.34;79.94;102343.73;82579;1261;3025770;-70
2023/01/25 09:01:05;;;;;;;42.00;27.70;;;;;;;-0.37;80.07;102340.02;82456;1260;3025678;-71
2023/01/25 09:03:41;;;;;;;45.10;27.30;;;;;;;-0.38;79.98;102330.88;83881;1261;3011529;-70
2023/01/25 09:06:13;;;;;;;44.50;27.40;;;;;;;-0.42;79.81;102334.15;82575;1258;3026103;-71
2023/01/25 09:08:45;;;;;;;38.40;24.40;;;;;;;-0.42;80.13;102329.19;83832;1254;3011594;-70
2023/01/25 09:11:19;;;;;;;41.00;25.60;;;;;;;-0.36;80.22;102330.45;82559;1260;3026385;-72
2023/01/25 09:13:50;;;;;;;42.30;26.60;;;;;;;-0.32;80.06;102327.17;83843;1261;3011334;-71
2023/01/25 09:16:27;;;;;;;42.20;27.00;;;;;;;-0.29;79.97;102329.37;82533;1260;3025477;-71
2023/01/25 09:19:04;;;;;;;45.10;28.00;;;;;;;-0.26;80.00;102318.66;82561;1263;3027536;-72
2023/01/25 09:21:36;;;;;;;45.20;29.20;;;;;;;-0.24;80.42;102316.99;82562;1259;3026214;-72
2023/01/25 09:24:08;;;;;;;44.50;27.80;;;;;;;-0.21;80.28;102316.28;83878;1268;3011941;-71
2023/01/25 09:26:42;;;;;;;46.00;29.60;;;;;;;-0.24;79.81;102316.30;82563;1255;3026118;-72
2023/01/25 09:29:13;;;;;;;43.50;27.00;;;;;;;-0.27;79.56;102315.86;83856;1259;3011503;-70
2023/01/25 09:31:45;;;;;;;42.00;25.70;;;;;;;-0.29;79.85;102316.86;82577;1254;3025885;-72
2023/01/25 09:34:17;;;;;;;42.40;26.90;;;;;;;-0.24;80.17;102309.98;83851;1261;3011553;-73
2023/01/25 09:36:50;;;;;;;41.20;26.40;;;;;;;-0.17;79.94;102307.32;82566;1260;3027071;-71
2023/01/25 09:39:21;;;;;;;42.60;26.80;;;;;;;-0.15;79.79;102299.17;83879;1255;3011581;-72
2023/01/25 09:42:39;;;;;;;42.20;27.40;;;;;;;-0.14;79.54;102291.64;82559;1255;3026405;-71
2023/01/25 09:45:21;;;;;;;45.40;29.60;;;;;;;-0.16;79.44;102289.02;82557;1260;3025622;-71
2023/01/25 09:48:04;;;;;;;46.30;29.90;;;;;;;-0.13;79.90;102281.74;82536;1255;3026268;-71
2023/01/25 09:50:41;;;;;;;40.70;25.40;;;;;;;-0.12;79.65;102275.94;82569;1259;3025245;-70
2023/01/25 09:53:31;;;;;;;39.40;24.60;;;;;;;-0.11;79.44;102274.45;82550;1254;3025614;-71
2023/01/25 09:56:12;;;;;;;43.20;27.50;;;;;;;-0.08;79.56;102273.69;82577;1256;3025967;-72
2023/01/25 09:58:48;;;;;;;41.70;27.90;;;;;;;-0.05;79.54;102276.73;82548;1261;3025868;-73
2023/01/25 10:01:27;;;;;;;43.10;28.20;;;;;;;-0.04;79.18;102274.16;82562;1255;3027373;-72
2023/01/25 10:04:01;;;;;;;43.50;28.60;;;;;;;-0.02;79.43;102271.31;82554;1255;3025822;-71
2023/01/25 10:06:39;;;;;;;45.20;29.20;;;;;;;-0.01;79.75;102268.61;83866;1260;3013213;-71
2023/01/25 10:09:22;;;;;;;46.40;30.20;;;;;;;0.00;79.50;102268.48;82522;1267;3026296;-72
2023/01/25 10:11:56;;;;;;;44.50;27.30;;;;;;;0.01;79.59;102263.38;82441;1254;3025177;-72
2023/01/25 10:14:32;;;;;;;40.30;25.50;;;;;;;0.03;79.32;102255.71;83869;1254;3012418;-71
2023/01/25 10:17:12;;;;;;;43.40;27.10;;;;;;;0.05;79.61;102258.20;82548;1254;3024718;-72
2023/01/25 10:20:12;;;;;;;49.00;29.10;;;;;;;0.12;79.87;102258.43;82578;1254;3024658;-71
2023/01/25 10:22:59;;;;;;;44.10;28.80;;;;;;;0.16;79.78;102256.02;82555;1254;3025309;-72
2023/01/25 10:25:38;;;;;;;49.00;30.10;;;;;;;0.17;79.27;102251.91;82581;1259;3025146;-73
2023/01/25 10:28:23;;;;;;;;;;;;;;;0.16;79.32;102246.58;82559;1259;3025935;-72
2023/01/25 10:30:59;;;;;;;47.40;30.30;;;;;;;0.11;79.26;102243.15;82583;1255;3026542;-72
2023/01/25 10:33:35;;;;;;;50.40;30.40;;;;;;;0.10;79.20;102242.59;82523;1254;3026308;-72
2023/01/25 10:36:11;;;;;;;49.40;29.10;;;;;;;0.10;79.29;102232.13;82569;1254;3025345;-72
2023/01/25 10:38:45;;;;;;;41.30;26.30;;;;;;;0.12;79.39;102223.79;82558;1261;3026461;-71
2023/01/25 10:41:21;;;;;;;46.00;29.20;;;;;;;0.17;79.17;102216.75;83876;1260;3011603;-72
2023/01/25 10:46:43;;;;;;;46.60;29.60;;;;;;;0.22;79.03;102210.20;82644;1254;3025873;-72
2023/01/25 10:49:25;;;;;;;45.30;29.40;;;;;;;0.24;79.20;102207.69;83353;1260;3011457;-73
2023/01/25 10:51:57;;;;;;;49.90;31.70;;;;;;;0.21;78.58;102199.90;82546;1254;3025220;-72
2023/01/25 10:54:28;;;;;;;49.70;32.20;;;;;;;0.18;78.61;102199.63;83863;1254;3011539;-72
2023/01/25 10:57:00;;;;;;;50.30;31.70;;;;;;;0.18;78.75;102201.49;82533;1254;3026208;-72
2023/01/25 10:59:38;;;;;;;49.40;29.80;;;;;;;0.14;78.82;102195.55;83875;1261;3012998;-72
2023/01/25 11:02:43;;;;;;;45.10;27.40;;;;;;;0.11;78.52;102195.23;82523;1259;3026471;-72
2023/01/25 11:05:31;;;;;;;46.50;28.70;;;;;;;0.08;78.75;102189.83;82542;1260;3025876;-72
2023/01/25 11:08:25;;;;;;;48.20;29.50;;;;;;;0.08;78.65;102187.77;82541;1254;3026419;-72
2023/01/25 11:10:57;;;;;;;46.20;29.80;;;;;;;0.06;78.97;102186.16;82568;1259;3026219;-72
2023/01/25 11:13:29;;;;;;;52.30;31.50;;;;;;;0.09;79.24;102183.53;83857;1259;3011327;-72
2023/01/25 11:16:23;;;;;;;53.70;31.80;;;;;;;0.11;79.27;102173.48;82540;1267;3026240;-71
2023/01/25 11:18:59;;;;;;;43.50;28.80;;;;;;;0.13;79.41;102166.81;82528;1270;3025893;-72
2023/01/25 11:21:32;;;;;;;40.90;26.50;;;;;;;0.12;79.24;102161.30;82552;1255;3026154;-72
2023/01/25 11:24:17;;;;;;;43.90;28.20;;;;;;;0.12;79.02;102157.54;83836;1254;3012901;-71
2023/01/25 11:26:51;;;;;;;42.20;28.20;;;;;;;0.15;79.00;102154.54;82427;1257;3027833;-72
2023/01/25 11:29:35;;;;;;;45.40;30.10;;;;;;;0.15;78.93;102146.48;83301;1259;3011477;-72
2023/01/25 11:32:21;;;;;;;47.70;30.90;;;;;;;0.19;79.32;102144.89;82550;1254;3026553;-72
2023/01/25 11:34:56;;;;;;;48.50;31.00;;;;;;;0.24;79.48;102137.31;82566;1254;3025700;-72